Akulivik

Current Flights

Departures
Number Departure To Airline
 3H803 12:15  Puvirnituq  Air Inuit
 3H802 15:50  Ivujivik  Air Inuit
 3H809 12:15  Puvirnituq  Air Inuit
 3H808 16:30  Ivujivik  Air Inuit
 3H803 12:15  Puvirnituq  Air Inuit
 3H802 15:50  Ivujivik  Air Inuit
Arrivals
Number Arrival From Airline
 3H803 11:55  Ivujivik  Air Inuit
 3H802 15:30  Puvirnituq  Air Inuit
 3H809 11:55  Ivujivik  Air Inuit
 3H808 16:10  Puvirnituq  Air Inuit
 3H803 11:55  Ivujivik  Air Inuit
 3H802 15:30  Puvirnituq  Air Inuit
Info
Name: Akulivik
Identifier:  AKV/CYKO
Local Time:  21. May 10:35
City
Akulivik
  Canada

Flights per Day
3 flights
Distance: 139km (86mi)
Punctuality
95% (0 flights per day delayed)
Delay Average: 27 minutes
Current Weather
 2 C (Humidity: 86%)
  14kt (25km/h / 16mph) from 130°
  Broken clouds at 3,500 feet (1,066 meter)
  24km (14 mi.)
 METAR CYKO 211400Z 13014KT 15SM BKN035 02/M00 A3007 RMK SC7 SLP185

Current Delays

Departures
N/A
Arrivals
N/A

Destinations

Top Destinations
Airport Flights
per week
Seats
per week
  Ivujivik (YIK) 7 595 1 85

Airlines & Planes

Top Airlines
Airline Flights
per Day
Seats
per Day
  Air Inuit 3 171
Top Plane Types
Manufacturer Model Flights Seats
Bombardier Dash 8-300 3.7/day 165/day 165
Bombardier Dash 8-400 0.1/day 4/day 4.5
Bombardier Dash 8-100 0.1/day 2/day 2.466666666666667
De Havilland DHC-6 0.0/day - 0